Time;durP1;ratioP1;P1;durP2;ratioP2;P2;SDS_P1;SDS_P2;PMS_P1;PMS_P2;Temp;Humidity;BMP_temperature;BMP_pressure;BME280_temperature;BME280_humidity;BME280_pressure;Samples;Min_cycle;Max_cycle;Signal;HPM_P1;HPM_P2
2021/03/30 00:00:51;;;;;;;46.42;19.77;;;9.60;99.90;;;;;;5050159;28;20216;-74
2021/03/30 00:03:17;;;;;;;34.35;19.20;;;9.60;99.90;;;;;;5018059;28;20172;-74
2021/03/30 00:05:42;;;;;;;50.35;20.50;;;9.60;99.90;;;;;;5028983;28;20172;-75
2021/03/30 00:08:08;;;;;;;37.50;20.45;;;9.50;99.90;;;;;;5055270;28;20171;-74
2021/03/30 00:10:43;;;;;;;35.15;20.23;;;9.40;99.90;;;;;;5037172;28;20266;-75
2021/03/30 00:13:09;;;;;;;37.58;19.52;;;9.40;99.90;;;;;;5036675;28;20233;-75
2021/03/30 00:15:34;;;;;;;42.47;21.48;;;9.40;99.90;;;;;;5035353;28;20698;-75
2021/03/30 00:18:00;;;;;;;43.00;19.92;;;9.40;99.90;;;;;;5035438;28;20184;-74
2021/03/30 00:20:26;;;;;;;38.80;20.40;;;9.40;99.90;;;;;;5041973;28;20172;-74
2021/03/30 00:22:52;;;;;;;41.35;19.52;;;9.30;99.90;;;;;;5025223;28;20183;-75
2021/03/30 00:25:18;;;;;;;43.22;20.60;;;9.30;99.90;;;;;;5018257;28;20172;-74
2021/03/30 00:27:44;;;;;;;42.13;20.65;;;9.20;99.90;;;;;;5035094;28;20625;-75
2021/03/30 00:30:11;;;;;;;38.85;20.25;;;9.10;99.90;;;;;;5034804;28;20164;-74
2021/03/30 00:32:37;;;;;;;31.58;18.48;;;9.10;99.90;;;;;;5034481;28;20202;-74
2021/03/30 00:35:04;;;;;;;38.25;18.77;;;9.00;99.90;;;;;;5039192;28;20258;-74
2021/03/30 00:37:30;;;;;;;38.25;18.73;;;9.10;99.90;;;;;;5036756;28;20171;-74
2021/03/30 00:39:55;;;;;;;34.45;20.05;;;9.00;99.90;;;;;;5054538;28;20183;-74
2021/03/30 00:42:24;;;;;;;41.53;21.10;;;9.00;99.90;;;;;;5054585;28;20175;-74
2021/03/30 00:44:56;;;;;;;36.90;19.48;;;9.10;99.90;;;;;;5021615;28;20168;-74
2021/03/30 00:47:22;;;;;;;39.15;20.55;;;9.00;99.90;;;;;;5034713;28;20168;-75
2021/03/30 00:49:53;;;;;;;40.38;21.15;;;9.00;99.90;;;;;;5000351;28;20180;-74
2021/03/30 00:52:20;;;;;;;45.55;19.95;;;9.00;99.90;;;;;;5034445;28;20227;-74
2021/03/30 00:54:46;;;;;;;40.72;19.95;;;9.00;99.90;;;;;;5034375;28;20203;-74
2021/03/30 00:57:13;;;;;;;37.13;20.20;;;8.90;99.90;;;;;;5053458;28;20164;-74
2021/03/30 00:59:39;;;;;;;41.17;20.25;;;8.80;99.90;;;;;;5029907;28;20183;-75
2021/03/30 01:02:05;;;;;;;31.85;18.42;;;8.80;99.90;;;;;;5034370;28;20176;-74
2021/03/30 01:04:30;;;;;;;35.80;19.92;;;8.80;99.90;;;;;;5016335;28;20188;-74
2021/03/30 01:06:56;;;;;;;35.00;20.00;;;8.80;99.90;;;;;;5050654;28;20639;-74
2021/03/30 01:09:30;;;;;;;37.28;20.88;;;8.80;99.90;;;;;;5052355;28;20663;-75
2021/03/30 01:12:05;;;;;;;35.45;20.17;;;8.80;99.90;;;;;;5053904;28;20329;-74
2021/03/30 01:14:40;;;;;;;40.70;20.52;;;8.70;99.90;;;;;;5053996;28;20650;-74
2021/03/30 01:17:31;;;;;;;33.90;19.80;;;8.70;99.90;;;;;;5051537;28;20637;-74
2021/03/30 01:20:25;;;;;;;33.47;18.63;;;8.70;99.90;;;;;;5036825;28;20179;-74
2021/03/30 01:23:28;;;;;;;40.13;20.00;;;8.70;99.90;;;;;;5016695;28;20180;-74
2021/03/30 01:26:11;;;;;;;44.50;20.67;;;8.60;99.90;;;;;;5023332;28;20174;-75
2021/03/30 01:29:02;;;;;;;39.00;20.15;;;8.60;99.90;;;;;;5033784;28;20193;-75
2021/03/30 01:31:32;;;;;;;40.88;20.33;;;8.70;99.90;;;;;;5036203;28;20184;-74
2021/03/30 01:34:01;;;;;;;44.20;21.40;;;8.60;99.90;;;;;;5015792;28;20172;-75
2021/03/30 01:36:31;;;;;;;39.17;21.60;;;8.60;99.90;;;;;;5024226;28;20248;-74
2021/03/30 01:38:58;;;;;;;36.28;19.92;;;8.60;99.90;;;;;;5049925;28;20172;-74
2021/03/30 01:41:24;;;;;;;34.75;19.85;;;8.50;99.90;;;;;;5033701;28;20624;-74
2021/03/30 01:43:50;;;;;;;38.55;19.90;;;8.50;99.90;;;;;;5015988;28;20171;-74
2021/03/30 01:46:16;;;;;;;34.83;18.70;;;8.40;99.90;;;;;;5033386;28;20175;-74
2021/03/30 01:48:43;;;;;;;35.72;18.83;;;8.30;99.90;;;;;;5033739;28;20168;-74
2021/03/30 01:51:11;;;;;;;34.15;18.38;;;8.30;99.90;;;;;;5033056;28;20529;-75
2021/03/30 01:53:39;;;;;;;32.53;20.15;;;8.30;99.90;;;;;;5033484;28;20172;-74
2021/03/30 01:56:06;;;;;;;38.33;18.88;;;8.20;99.90;;;;;;5019969;28;20610;-74
2021/03/30 01:58:32;;;;;;;31.52;18.63;;;8.20;99.90;;;;;;5035718;28;20176;-74
2021/03/30 02:01:00;;;;;;;34.33;19.15;;;8.20;99.90;;;;;;5015566;28;20210;-74
2021/03/30 02:03:27;;;;;;;35.92;18.27;;;8.20;99.90;;;;;;5033546;28;20160;-74
2021/03/30 02:05:56;;;;;;;36.28;18.27;;;8.10;99.90;;;;;;5033457;28;20171;-74
2021/03/30 02:08:25;;;;;;;41.35;19.38;;;8.10;99.90;;;;;;5031358;28;20176;-74
2021/03/30 02:10:54;;;;;;;33.20;18.05;;;8.00;99.90;;;;;;5015330;28;20223;-75
2021/03/30 02:13:25;;;;;;;41.85;18.38;;;8.10;99.90;;;;;;5033215;28;20171;-75
2021/03/30 02:16:08;;;;;;;36.67;19.42;;;8.10;99.90;;;;;;5034422;28;20168;-74
2021/03/30 02:18:42;;;;;;;31.23;17.70;;;8.00;99.90;;;;;;5028940;28;20221;-75
2021/03/30 02:21:10;;;;;;;34.53;18.80;;;8.10;99.90;;;;;;5033096;28;20191;-74
2021/03/30 02:23:39;;;;;;;39.17;19.50;;;8.00;99.90;;;;;;5032864;28;20195;-74
2021/03/30 02:26:07;;;;;;;38.88;18.80;;;8.00;99.90;;;;;;5035474;28;20168;-75
2021/03/30 02:28:42;;;;;;;42.92;18.67;;;7.90;99.90;;;;;;5051770;28;20171;-74
2021/03/30 02:31:13;;;;;;;39.13;18.85;;;7.80;99.90;;;;;;4995967;28;20204;-74
2021/03/30 02:33:41;;;;;;;40.85;20.02;;;7.70;99.90;;;;;;4995635;28;20173;-75
2021/03/30 02:36:08;;;;;;;39.55;19.92;;;7.80;99.90;;;;;;5015966;28;20244;-75
2021/03/30 02:38:35;;;;;;;38.97;21.00;;;7.90;99.90;;;;;;5052675;28;20167;-74
2021/03/30 02:41:01;;;;;;;37.30;20.27;;;7.90;99.90;;;;;;5037245;28;20282;-76
2021/03/30 02:43:28;;;;;;;38.45;20.33;;;8.00;99.90;;;;;;5015490;28;20168;-75
2021/03/30 02:45:54;;;;;;;35.13;19.73;;;7.90;99.90;;;;;;5033601;28;20230;-75
2021/03/30 02:48:21;;;;;;;44.45;22.98;;;7.80;99.90;;;;;;5030571;28;20168;-75
2021/03/30 02:50:51;;;;;;;35.55;20.17;;;7.80;99.90;;;;;;5018455;28;20196;-74
2021/03/30 02:53:17;;;;;;;45.63;20.73;;;7.80;99.90;;;;;;5036843;28;20196;-75
2021/03/30 02:55:45;;;;;;;35.88;20.30;;;7.80;99.90;;;;;;5025535;28;20180;-75
2021/03/30 02:58:11;;;;;;;38.08;21.13;;;7.80;99.90;;;;;;5036807;28;20164;-75
2021/03/30 03:00:39;;;;;;;37.70;20.90;;;7.70;99.90;;;;;;5022573;28;20183;-76
2021/03/30 03:03:09;;;;;;;40.13;20.30;;;7.70;99.90;;;;;;5046947;28;20168;-75
2021/03/30 03:05:35;;;;;;;38.25;21.73;;;7.60;99.90;;;;;;5036581;28;20164;-75
2021/03/30 03:08:01;;;;;;;33.38;19.55;;;7.60;99.90;;;;;;5018798;28;20678;-74
2021/03/30 03:10:27;;;;;;;38.95;19.02;;;7.60;99.90;;;;;;5035149;28;20246;-75
2021/03/30 03:12:54;;;;;;;43.22;21.15;;;7.60;99.90;;;;;;5017164;28;20616;-75
2021/03/30 03:15:21;;;;;;;37.22;18.65;;;7.60;99.90;;;;;;5020908;28;20163;-74
2021/03/30 03:17:49;;;;;;;35.35;18.92;;;7.50;99.90;;;;;;5037107;28;20229;-75
2021/03/30 03:20:15;;;;;;;35.40;18.00;;;7.50;99.90;;;;;;5037359;28;20167;-75
2021/03/30 03:22:41;;;;;;;39.17;20.80;;;7.40;99.90;;;;;;5043663;28;20226;-74
2021/03/30 03:25:08;;;;;;;39.80;21.08;;;7.40;99.90;;;;;;5035356;28;20203;-74
2021/03/30 03:27:35;;;;;;;37.72;21.25;;;7.40;99.90;;;;;;5034642;28;20168;-75
2021/03/30 03:30:07;;;;;;;32.33;19.27;;;7.40;99.90;;;;;;5017144;28;20164;-74
2021/03/30 03:32:33;;;;;;;35.78;21.05;;;7.30;99.90;;;;;;5034363;28;20188;-74
2021/03/30 03:34:58;;;;;;;43.38;20.65;;;7.40;99.90;;;;;;5035249;28;20164;-75
2021/03/30 03:37:24;;;;;;;38.40;19.52;;;7.40;99.90;;;;;;5036672;28;20254;-74
2021/03/30 03:39:51;;;;;;;35.90;19.83;;;7.40;99.90;;;;;;5054496;28;20236;-76
2021/03/30 03:42:16;;;;;;;37.00;19.92;;;7.40;99.90;;;;;;5036953;28;20175;-74
2021/03/30 03:44:42;;;;;;;38.80;20.42;;;7.40;99.90;;;;;;5037549;28;20172;-74
2021/03/30 03:47:08;;;;;;;36.03;20.55;;;7.40;99.90;;;;;;5034645;28;20200;-75
2021/03/30 03:49:33;;;;;;;37.75;20.10;;;7.40;99.90;;;;;;5034588;28;20251;-74
2021/03/30 03:52:02;;;;;;;31.80;18.45;;;7.40;99.90;;;;;;5034345;28;20219;-74
2021/03/30 03:54:29;;;;;;;32.75;18.38;;;7.40;99.90;;;;;;5042277;28;20175;-75
2021/03/30 03:57:04;;;;;;;28.92;17.10;;;7.30;99.90;;;;;;5054233;28;20164;-74
2021/03/30 03:59:32;;;;;;;30.40;17.10;;;7.30;99.90;;;;;;5054331;28;20183;-75
2021/03/30 04:02:21;;;;;;;35.47;17.70;;;7.20;99.90;;;;;;5036683;28;20171;-74
2021/03/30 04:04:53;;;;;;;42.78;17.85;;;7.10;99.90;;;;;;5025935;28;20208;-74
2021/03/30 04:07:26;;;;;;;40.47;20.00;;;7.10;99.90;;;;;;5034387;28;20160;-75
2021/03/30 04:09:53;;;;;;;36.65;20.05;;;7.00;99.90;;;;;;5014135;28;584600;-75
2021/03/30 04:12:21;;;;;;;38.50;21.02;;;7.10;99.90;;;;;;5017146;28;20721;-75
2021/03/30 04:14:47;;;;;;;40.95;22.02;;;7.00;99.90;;;;;;5035170;28;20175;-75
2021/03/30 04:17:17;;;;;;;47.03;23.67;;;7.00;99.90;;;;;;5017263;28;20553;-74
2021/03/30 04:19:44;;;;;;;43.50;21.20;;;7.10;99.90;;;;;;5017263;28;20175;-74
2021/03/30 04:22:12;;;;;;;37.47;19.40;;;7.00;99.90;;;;;;5001266;28;20229;-74
2021/03/30 04:24:39;;;;;;;40.83;20.50;;;7.20;99.90;;;;;;5035105;28;20179;-75
2021/03/30 04:27:08;;;;;;;49.42;21.50;;;7.20;99.90;;;;;;5033475;28;20176;-75
2021/03/30 04:29:34;;;;;;;41.30;20.63;;;7.20;99.90;;;;;;5033929;28;20168;-74
2021/03/30 04:32:01;;;;;;;39.35;20.73;;;7.10;99.90;;;;;;5034676;28;20362;-74
2021/03/30 04:34:26;;;;;;;33.63;18.02;;;7.10;99.90;;;;;;5035143;28;20171;-75
2021/03/30 04:36:52;;;;;;;35.95;19.20;;;7.10;99.90;;;;;;5034727;28;20247;-74
2021/03/30 04:39:17;;;;;;;40.30;21.80;;;7.10;99.90;;;;;;5016900;28;20200;-75
2021/03/30 04:41:43;;;;;;;39.57;20.43;;;7.10;99.90;;;;;;5017058;28;20175;-75
2021/03/30 04:44:09;;;;;;;38.13;19.50;;;7.20;99.90;;;;;;5018344;28;20176;-74
2021/03/30 04:46:34;;;;;;;32.63;19.42;;;7.10;99.90;;;;;;5053787;28;20170;-74
2021/03/30 04:49:00;;;;;;;49.67;21.73;;;6.90;99.90;;;;;;5035652;28;20178;-75
2021/03/30 04:51:26;;;;;;;43.63;22.83;;;6.80;99.90;;;;;;5016830;28;20206;-74
2021/03/30 04:53:51;;;;;;;49.83;23.90;;;6.80;99.90;;;;;;5016628;28;20218;-74
2021/03/30 04:56:17;;;;;;;49.00;23.77;;;6.90;99.90;;;;;;5034625;28;20229;-75
2021/03/30 04:58:43;;;;;;;47.13;23.07;;;7.00;99.90;;;;;;5034411;28;20680;-75
2021/03/30 05:01:08;;;;;;;49.97;23.83;;;7.00;99.90;;;;;;5016772;28;20179;-75
2021/03/30 05:03:34;;;;;;;43.95;22.02;;;6.90;99.90;;;;;;5017096;28;20169;-75
2021/03/30 05:05:59;;;;;;;47.03;22.33;;;6.80;99.90;;;;;;5034388;28;20251;-74
2021/03/30 05:08:25;;;;;;;35.63;21.23;;;6.80;99.90;;;;;;5015256;28;20179;-74
2021/03/30 05:10:51;;;;;;;39.63;20.63;;;6.80;99.90;;;;;;5034144;28;20208;-74
2021/03/30 05:13:17;;;;;;;43.00;20.50;;;6.70;99.90;;;;;;5034402;28;20168;-74
2021/03/30 05:15:43;;;;;;;38.80;21.23;;;6.70;99.90;;;;;;5047130;28;20212;-75
2021/03/30 05:18:09;;;;;;;46.37;22.03;;;6.60;99.90;;;;;;5036177;28;20293;-75
2021/03/30 05:20:34;;;;;;;42.37;22.07;;;6.60;99.90;;;;;;5038331;28;20176;-75
2021/03/30 05:23:00;;;;;;;41.00;21.58;;;6.60;99.90;;;;;;5016066;28;20279;-75
2021/03/30 05:25:25;;;;;;;46.00;22.87;;;6.60;99.90;;;;;;5034367;28;20168;-75
2021/03/30 05:27:51;;;;;;;43.77;22.23;;;6.70;99.90;;;;;;5034061;28;20164;-75
2021/03/30 05:30:18;;;;;;;42.92;22.45;;;6.80;99.90;;;;;;5033779;28;20175;-75
2021/03/30 05:32:44;;;;;;;50.03;23.10;;;6.80;99.90;;;;;;5016130;28;20211;-75
2021/03/30 05:35:12;;;;;;;49.85;22.38;;;6.90;99.90;;;;;;5041021;28;20169;-75
2021/03/30 05:37:38;;;;;;;54.17;21.88;;;6.90;99.90;;;;;;5035477;28;20164;-75
2021/03/30 05:40:09;;;;;;;46.20;20.13;;;6.90;99.90;;;;;;5053548;28;20248;-75
2021/03/30 05:42:35;;;;;;;33.57;18.03;;;7.00;99.90;;;;;;5014447;28;20263;-75
2021/03/30 05:45:01;;;;;;;36.47;19.13;;;7.10;99.90;;;;;;5008150;28;20275;-75
2021/03/30 05:47:28;;;;;;;29.42;17.80;;;7.10;99.90;;;;;;5053093;28;20164;-75
2021/03/30 05:49:54;;;;;;;40.00;18.63;;;7.10;99.90;;;;;;5035620;28;20198;-75
2021/03/30 05:52:54;;;;;;;38.05;19.73;;;7.20;99.90;;;;;;5039455;28;20196;-75
2021/03/30 05:55:29;;;;;;;38.42;19.48;;;7.30;99.90;;;;;;5023437;28;20168;-75
2021/03/30 05:57:59;;;;;;;39.87;20.67;;;7.30;99.90;;;;;;5053087;28;20174;-75
2021/03/30 06:00:29;;;;;;;37.33;20.02;;;7.40;99.90;;;;;;5053252;28;20163;-75
2021/03/30 06:02:58;;;;;;;41.42;20.35;;;7.50;99.90;;;;;;5022530;28;20192;-75
2021/03/30 06:05:24;;;;;;;43.85;20.40;;;7.50;99.90;;;;;;5023229;28;20567;-75
2021/03/30 06:07:56;;;;;;;42.38;20.63;;;7.70;99.90;;;;;;5035476;28;20171;-75
2021/03/30 06:10:24;;;;;;;38.03;18.98;;;7.70;99.90;;;;;;5038947;28;20192;-75
2021/03/30 06:12:50;;;;;;;35.50;19.15;;;7.80;99.90;;;;;;5015047;28;20294;-75
2021/03/30 06:15:16;;;;;;;37.55;19.23;;;7.90;99.90;;;;;;5022223;28;20170;-75
2021/03/30 06:17:49;;;;;;;37.72;18.88;;;8.00;99.90;;;;;;5054621;28;20174;-75
2021/03/30 06:20:28;;;;;;;40.08;19.30;;;8.10;99.90;;;;;;5052386;28;20156;-75
2021/03/30 06:23:01;;;;;;;39.97;19.35;;;8.10;99.90;;;;;;5053637;28;20159;-75
2021/03/30 06:25:49;;;;;;;39.13;19.52;;;8.10;99.90;;;;;;5025833;28;20178;-75
2021/03/30 06:28:16;;;;;;;31.85;18.85;;;8.20;99.90;;;;;;5014254;28;20164;-74
2021/03/30 06:30:56;;;;;;;34.90;18.85;;;8.40;99.90;;;;;;5014727;28;20161;-74
2021/03/30 06:33:23;;;;;;;34.17;17.55;;;8.50;99.90;;;;;;5014400;28;20157;-75
2021/03/30 06:35:49;;;;;;;36.03;18.20;;;8.60;99.90;;;;;;5038382;28;20167;-75
2021/03/30 06:38:16;;;;;;;34.05;16.20;;;8.70;99.90;;;;;;5035731;28;20600;-74
2021/03/30 06:40:43;;;;;;;33.58;15.02;;;8.60;99.90;;;;;;5052765;28;20168;-74
2021/03/30 06:46:10;;;;;;;37.30;19.35;;;8.70;99.90;;;;;;5037867;28;20211;-75
2021/03/30 06:48:38;;;;;;;40.67;20.60;;;8.80;99.90;;;;;;5033099;28;20263;-75
2021/03/30 06:51:20;;;;;;;37.63;21.45;;;8.90;99.90;;;;;;5033550;28;20291;-75
2021/03/30 06:53:46;;;;;;;41.55;21.33;;;9.10;99.90;;;;;;5015444;28;20222;-74
2021/03/30 06:56:13;;;;;;;38.88;19.52;;;9.40;99.90;;;;;;5033037;28;20168;-75
2021/03/30 06:58:56;;;;;;;44.90;19.65;;;9.70;99.90;;;;;;5015344;28;20179;-75
2021/03/30 07:01:24;;;;;;;40.30;21.10;;;10.20;99.90;;;;;;5032839;28;20160;-75
2021/03/30 07:03:50;;;;;;;39.03;22.33;;;11.00;99.90;;;;;;5032744;28;20612;-75
2021/03/30 07:06:17;;;;;;;44.08;21.27;;;11.90;99.90;;;;;;5014658;28;20620;-75
2021/03/30 07:08:44;;;;;;;32.90;20.27;;;13.20;99.90;;;;;;5035453;28;20515;-75
2021/03/30 07:11:11;;;;;;;37.13;20.65;;;14.90;99.90;;;;;;5015074;28;20647;-75
2021/03/30 07:13:37;;;;;;;36.33;20.98;;;17.00;99.90;;;;;;5015570;28;20603;-75
2021/03/30 07:16:09;;;;;;;30.48;19.00;;;19.20;99.90;;;;;;5037338;28;20163;-76
2021/03/30 07:18:43;;;;;;;26.45;18.83;;;21.40;99.90;;;;;;5016470;28;20164;-74
2021/03/30 07:21:25;;;;;;;26.58;19.48;;;23.70;99.90;;;;;;5016037;28;20216;-76
2021/03/30 07:23:59;;;;;;;28.70;18.08;;;25.90;99.90;;;;;;5015697;28;20225;-75
2021/03/30 07:26:46;;;;;;;29.13;17.02;;;28.50;97.60;;;;;;5021085;28;20170;-76
2021/03/30 07:29:29;;;;;;;26.83;17.92;;;30.80;91.90;;;;;;5035476;28;20533;-76
2021/03/30 07:32:27;;;;;;;24.63;15.90;;;32.50;86.90;;;;;;5033184;28;20549;-76
2021/03/30 07:35:01;;;;;;;26.30;16.30;;;34.20;80.70;;;;;;4973089;28;20188;-76
2021/03/30 07:37:34;;;;;;;15.93;13.88;;;35.40;76.40;;;;;;5029748;28;20175;-76
2021/03/30 07:40:01;;;;;;;20.48;14.15;;;36.00;74.10;;;;;;5035846;28;20172;-76
2021/03/30 07:42:28;;;;;;;26.88;17.33;;;36.50;68.30;;;;;;5018121;28;20172;-74
2021/03/30 07:44:54;;;;;;;28.65;16.90;;;36.70;60.90;;;;;;5038838;28;20175;-74
2021/03/30 07:47:20;;;;;;;28.85;16.00;;;36.50;58.90;;;;;;5034994;28;20195;-74
2021/03/30 07:49:51;;;;;;;24.48;16.35;;;36.50;58.30;;;;;;5018635;28;20266;-73
2021/03/30 07:52:29;;;;;;;31.20;15.77;;;37.20;57.10;;;;;;5032074;28;20203;-74
2021/03/30 07:55:22;;;;;;;19.83;14.70;;;37.80;57.00;;;;;;5035397;28;20168;-74
2021/03/30 07:58:10;;;;;;;28.67;15.73;;;38.10;54.50;;;;;;5032611;28;20271;-76
2021/03/30 08:00:38;;;;;;;27.05;14.73;;;38.10;54.50;;;;;;5035295;28;20171;-73
2021/03/30 08:03:14;;;;;;;29.73;13.25;;;38.50;54.30;;;;;;5030790;28;20519;-74
2021/03/30 08:05:40;;;;;;;21.35;12.63;;;38.80;53.80;;;;;;5034842;28;20518;-74
2021/03/30 08:08:25;;;;;;;17.90;13.93;;;39.10;53.90;;;;;;5001608;28;20258;-73
2021/03/30 08:10:54;;;;;;;26.40;14.55;;;39.00;52.50;;;;;;5034391;28;20197;-74
2021/03/30 08:13:27;;;;;;;23.35;13.95;;;39.10;52.30;;;;;;5017730;28;20565;-74
2021/03/30 08:16:01;;;;;;;16.80;12.15;;;39.90;51.30;;;;;;5033562;28;20181;-74
2021/03/30 08:18:32;;;;;;;18.58;13.07;;;39.20;51.10;;;;;;5035579;28;20665;-73
2021/03/30 08:21:08;;;;;;;22.63;14.50;;;38.40;51.20;;;;;;5035281;28;20285;-73
2021/03/30 08:23:52;;;;;;;20.02;12.65;;;38.50;53.00;;;;;;5017118;28;20492;-74
2021/03/30 08:26:22;;;;;;;18.55;12.93;;;38.80;52.90;;;;;;5018180;28;20175;-74
2021/03/30 08:28:48;;;;;;;21.55;12.82;;;39.00;51.60;;;;;;5026872;28;20160;-73
2021/03/30 08:31:38;;;;;;;14.38;12.68;;;39.80;51.30;;;;;;5040377;28;20312;-75
2021/03/30 08:34:14;;;;;;;18.45;13.43;;;40.60;51.20;;;;;;5020146;28;20171;-73
2021/03/30 08:36:56;;;;;;;16.40;11.95;;;41.90;48.70;;;;;;5033689;28;20175;-74
2021/03/30 08:39:21;;;;;;;18.48;10.70;;;42.90;48.90;;;;;;5024748;28;20167;-74
2021/03/30 08:41:49;;;;;;;16.58;11.55;;;43.50;47.70;;;;;;5017307;28;20302;-74
2021/03/30 08:44:41;;;;;;;14.80;12.40;;;44.10;46.50;;;;;;5033797;28;20624;-74
2021/03/30 08:47:08;;;;;;;28.50;12.60;;;44.20;45.50;;;;;;5032611;28;20356;-74
2021/03/30 08:49:41;;;;;;;16.70;12.13;;;43.80;44.60;;;;;;5051830;28;20171;-74
2021/03/30 08:52:13;;;;;;;15.55;11.35;;;43.20;44.30;;;;;;5043334;28;20200;-74
2021/03/30 08:54:49;;;;;;;21.30;11.15;;;42.90;44.20;;;;;;5054567;28;20178;-76
2021/03/30 08:57:21;;;;;;;27.23;11.30;;;43.10;45.90;;;;;;5044714;28;20221;-74
2021/03/30 08:59:47;;;;;;;15.15;11.00;;;43.70;43.90;;;;;;5032553;28;20176;-74
2021/03/30 09:02:21;;;;;;;11.32;10.18;;;43.90;44.10;;;;;;5029669;28;20207;-73
2021/03/30 09:04:47;;;;;;;19.33;10.95;;;44.40;44.20;;;;;;5031991;28;20188;-74
2021/03/30 09:07:13;;;;;;;18.05;10.20;;;44.80;43.40;;;;;;5032594;28;20225;-74
2021/03/30 09:09:39;;;;;;;12.43;9.25;;;45.00;43.50;;;;;;5031414;28;20183;-75
2021/03/30 09:12:18;;;;;;;11.10;9.90;;;45.20;42.40;;;;;;5033699;28;20175;-74
2021/03/30 09:14:44;;;;;;;15.77;9.07;;;45.10;41.10;;;;;;5032176;28;20679;-74
2021/03/30 09:17:13;;;;;;;11.35;8.60;;;45.40;42.50;;;;;;5033327;28;20222;-74
2021/03/30 09:19:50;;;;;;;15.45;8.75;;;45.80;42.30;;;;;;5032656;28;20174;-75
2021/03/30 09:22:26;;;;;;;14.65;8.70;;;46.30;41.90;;;;;;5012953;28;20621;-75
2021/03/30 09:27:29;;;;;;;19.75;9.70;;;47.00;40.50;;;;;;5030142;28;20176;-75
2021/03/30 09:29:58;;;;;;;20.10;8.50;;;47.30;40.30;;;;;;5034768;28;20243;-74
2021/03/30 09:32:26;;;;;;;9.98;7.65;;;47.90;41.60;;;;;;5032845;28;20318;-74
2021/03/30 09:34:52;;;;;;;11.60;9.60;;;47.30;40.50;;;;;;5032799;28;20194;-75
2021/03/30 09:37:18;;;;;;;19.63;8.68;;;47.30;40.70;;;;;;5027128;28;20166;-75
2021/03/30 09:39:44;;;;;;;16.73;9.82;;;47.30;40.00;;;;;;5032934;28;20226;-74
2021/03/30 09:42:11;;;;;;;18.40;8.52;;;47.50;40.00;;;;;;5015121;28;20644;-74
2021/03/30 09:44:45;;;;;;;9.13;8.23;;;47.30;40.90;;;;;;5033047;28;20611;-74
2021/03/30 09:47:11;;;;;;;20.00;9.07;;;47.30;41.50;;;;;;5033310;28;20608;-73
2021/03/30 09:49:38;;;;;;;19.63;9.63;;;47.20;38.80;;;;;;5032762;28;20182;-74
2021/03/30 09:52:04;;;;;;;20.13;9.90;;;46.10;39.90;;;;;;5014536;28;20192;-75
2021/03/30 09:54:33;;;;;;;17.20;9.65;;;44.80;39.40;;;;;;5032353;28;20646;-79
2021/03/30 09:57:03;;;;;;;13.73;9.68;;;44.40;40.40;;;;;;5026992;28;20184;-75
2021/03/30 09:59:29;;;;;;;19.08;10.52;;;45.00;41.20;;;;;;5027886;28;20225;-76
2021/03/30 10:01:56;;;;;;;17.48;9.80;;;45.40;39.30;;;;;;5031430;28;20206;-76
2021/03/30 10:04:25;;;;;;;18.27;8.95;;;46.00;40.10;;;;;;5014889;28;20616;-75
2021/03/30 10:06:51;;;;;;;17.60;10.27;;;46.90;40.40;;;;;;5030940;28;20575;-75
2021/03/30 10:09:16;;;;;;;14.20;8.75;;;47.00;39.40;;;;;;5031551;28;20195;-75
2021/03/30 10:11:44;;;;;;;16.35;10.13;;;46.30;39.50;;;;;;5014276;28;20201;-74
2021/03/30 10:14:21;;;;;;;16.67;8.25;;;47.00;38.80;;;;;;5032719;28;20596;-74
2021/03/30 10:16:47;;;;;;;21.05;8.32;;;46.90;37.80;;;;;;5014462;28;20489;-75
2021/03/30 10:19:14;;;;;;;14.50;8.23;;;45.40;37.50;;;;;;5031908;28;20262;-75
2021/03/30 10:21:42;;;;;;;19.55;7.55;;;44.70;37.90;;;;;;5031429;28;20269;-75
2021/03/30 10:24:15;;;;;;;10.50;5.50;;;44.80;38.10;;;;;;5032207;28;20164;-74
2021/03/30 10:26:41;;;;;;;8.30;5.05;;;44.10;37.90;;;;;;5032078;28;20159;-75
2021/03/30 10:29:14;;;;;;;10.93;5.07;;;43.30;38.40;;;;;;5013292;28;20160;-75
2021/03/30 10:31:51;;;;;;;9.18;5.32;;;42.90;38.10;;;;;;5015443;28;20271;-74
2021/03/30 10:34:25;;;;;;;12.57;4.80;;;36.90;40.00;;;;;;5034758;28;20179;-74
2021/03/30 10:36:52;;;;;;;10.80;4.50;;;35.50;42.00;;;;;;5028628;28;20194;-74
2021/03/30 10:39:37;;;;;;;5.43;4.53;;;35.10;42.60;;;;;;5037454;28;20168;-74
2021/03/30 10:42:08;;;;;;;14.60;5.53;;;37.70;42.00;;;;;;5022820;28;20230;-74
2021/03/30 10:44:39;;;;;;;9.77;5.18;;;35.80;41.60;;;;;;5012141;28;20529;-75
2021/03/30 10:47:33;;;;;;;8.30;4.70;;;36.50;41.60;;;;;;5031453;28;20172;-75
2021/03/30 10:50:00;;;;;;;10.52;4.25;;;37.80;41.50;;;;;;5025905;28;20237;-77
2021/03/30 10:52:32;;;;;;;6.38;4.18;;;39.60;40.40;;;;;;5030728;28;20198;-75
2021/03/30 10:55:00;;;;;;;5.03;4.20;;;40.70;38.60;;;;;;5013012;28;20262;-76
2021/03/30 10:57:32;;;;;;;13.05;3.80;;;42.00;38.60;;;;;;5030743;28;20190;-75
2021/03/30 10:59:57;;;;;;;7.90;5.30;;;43.70;39.40;;;;;;5031743;28;20179;-78
2021/03/30 11:02:23;;;;;;;13.32;4.68;;;44.50;38.00;;;;;;5030685;28;20679;-75
2021/03/30 11:04:49;;;;;;;13.82;5.95;;;43.70;37.30;;;;;;5030166;28;20172;-76
2021/03/30 11:07:15;;;;;;;10.93;5.15;;;42.70;38.20;;;;;;5030061;28;20168;-74
2021/03/30 11:09:43;;;;;;;11.02;5.07;;;42.30;38.80;;;;;;5034568;28;20186;-74
2021/03/30 11:12:09;;;;;;;12.95;5.10;;;42.10;39.10;;;;;;5034596;28;20179;-74
2021/03/30 11:14:35;;;;;;;10.13;5.70;;;42.50;39.90;;;;;;5034563;28;20205;-74
2021/03/30 11:17:01;;;;;;;6.72;5.20;;;42.80;40.60;;;;;;5034265;28;20258;-75
2021/03/30 11:19:28;;;;;;;19.33;6.05;;;42.80;40.20;;;;;;5035286;28;20184;-74
2021/03/30 11:21:56;;;;;;;7.75;4.75;;;42.90;40.00;;;;;;5034709;28;20377;-74
2021/03/30 11:24:24;;;;;;;10.02;5.18;;;42.20;40.80;;;;;;5017841;28;20171;-75
2021/03/30 11:26:52;;;;;;;6.47;4.55;;;42.10;41.90;;;;;;5016666;28;20563;-74
2021/03/30 11:29:44;;;;;;;8.93;4.85;;;42.00;40.20;;;;;;5032998;28;20172;-75
2021/03/30 11:34:46;;;;;;;6.15;3.97;;;42.40;39.50;;;;;;5032974;28;20182;-73
2021/03/30 11:39:38;;;;;;;3.83;3.20;;;42.10;39.40;;;;;;5034082;28;20176;-75
2021/03/30 11:42:05;;;;;;;2.95;2.75;;;42.40;38.20;;;;;;5025287;28;20285;-74
2021/03/30 11:44:31;;;;;;;5.15;3.50;;;42.80;38.30;;;;;;5041711;28;20233;-77
2021/03/30 11:46:59;;;;;;;7.88;3.70;;;43.20;38.60;;;;;;5032067;28;20167;-75
2021/03/30 11:49:26;;;;;;;5.50;3.15;;;43.70;37.30;;;;;;5018493;28;20204;-73
2021/03/30 11:51:51;;;;;;;7.20;3.45;;;43.80;38.10;;;;;;5035677;28;20642;-74
2021/03/30 11:54:17;;;;;;;6.85;3.30;;;43.60;37.50;;;;;;5030665;28;20262;-76
2021/03/30 11:56:43;;;;;;;8.80;3.67;;;43.70;37.30;;;;;;5011584;28;20572;-74
2021/03/30 11:59:08;;;;;;;3.67;3.33;;;43.10;37.90;;;;;;5029398;28;20234;-76
2021/03/30 12:01:34;;;;;;;4.47;3.90;;;42.40;39.60;;;;;;5041848;28;20265;-74
2021/03/30 12:03:59;;;;;;;6.30;2.72;;;42.00;38.50;;;;;;5020397;28;20620;-75
2021/03/30 12:06:25;;;;;;;4.85;3.47;;;42.10;38.20;;;;;;5016691;28;20195;-74
2021/03/30 12:08:50;;;;;;;9.38;3.25;;;42.40;38.50;;;;;;5029068;28;20175;-74
2021/03/30 12:11:16;;;;;;;4.38;3.17;;;42.30;40.50;;;;;;5052969;28;20246;-75
2021/03/30 12:13:42;;;;;;;11.90;3.42;;;42.30;40.10;;;;;;5026350;28;20179;-74
2021/03/30 12:16:07;;;;;;;10.50;2.88;;;41.70;38.90;;;;;;5015436;28;20521;-74
2021/03/30 12:18:33;;;;;;;6.00;2.58;;;41.30;39.30;;;;;;5016733;28;20678;-74
2021/03/30 12:20:59;;;;;;;6.57;2.85;;;41.60;40.60;;;;;;5016041;28;20171;-74
2021/03/30 12:23:24;;;;;;;11.23;2.90;;;41.90;40.80;;;;;;5016433;28;20183;-74
2021/03/30 12:25:50;;;;;;;8.85;2.85;;;41.30;40.00;;;;;;5015807;28;20527;-75
2021/03/30 12:28:16;;;;;;;8.65;2.35;;;40.60;38.60;;;;;;5016220;28;20224;-74
2021/03/30 12:30:42;;;;;;;4.68;2.60;;;39.90;40.30;;;;;;5033677;28;20246;-73
2021/03/30 12:33:08;;;;;;;8.05;2.30;;;39.20;39.90;;;;;;5037510;28;20176;-74
2021/03/30 12:35:33;;;;;;;3.45;2.17;;;38.80;39.10;;;;;;5033616;28;20168;-74
2021/03/30 12:37:59;;;;;;;8.18;2.55;;;38.50;39.60;;;;;;5015621;28;20171;-73
2021/03/30 12:40:25;;;;;;;2.85;2.05;;;37.60;40.10;;;;;;5034086;28;20258;-74
2021/03/30 12:42:51;;;;;;;4.32;2.72;;;37.20;41.40;;;;;;5033873;28;20286;-74
2021/03/30 12:45:18;;;;;;;5.30;2.45;;;35.50;42.80;;;;;;5033070;28;20170;-74
2021/03/30 12:47:44;;;;;;;2.67;2.03;;;33.80;44.50;;;;;;5033931;28;20198;-74
2021/03/30 12:50:10;;;;;;;4.78;2.15;;;32.50;46.00;;;;;;5033314;28;20611;-74
2021/03/30 12:52:36;;;;;;;5.95;2.47;;;31.60;46.40;;;;;;5038684;28;20592;-76
2021/03/30 12:55:10;;;;;;;9.13;2.95;;;30.70;47.30;;;;;;5015329;28;20203;-76
2021/03/30 12:57:36;;;;;;;3.95;2.50;;;30.00;45.70;;;;;;5015986;28;20186;-74